createdAt,value
2022-09-28T00:01:19.398Z,95081.25
2022-09-28T00:03:49.225Z,95069.84
2022-09-28T00:06:20.314Z,95072.81
2022-09-28T00:08:47.232Z,95068.69
2022-09-28T00:11:15.511Z,95074.19
2022-09-28T00:13:43.837Z,95070.06
2022-09-28T00:16:17.721Z,95056.81
2022-09-28T00:18:45.567Z,95056.00
2022-09-28T00:21:22.226Z,95053.50
2022-09-28T00:24:11.916Z,95044.81
2022-09-28T00:26:45.210Z,95048.25
2022-09-28T00:29:22.920Z,95040.78
2022-09-28T00:31:53.763Z,95031.63
2022-09-28T00:34:20.753Z,95031.84
2022-09-28T00:36:48.728Z,95027.06
2022-09-28T00:39:17.240Z,95023.28
2022-09-28T00:41:45.831Z,95009.34
2022-09-28T00:44:51.449Z,94997.09
2022-09-28T00:47:40.580Z,94995.69
2022-09-28T00:50:33.768Z,94988.84
2022-09-28T00:53:13.137Z,94989.78
2022-09-28T00:55:46.583Z,94995.38
2022-09-28T00:58:19.718Z,94986.97
2022-09-28T01:00:46.671Z,94977.38
2022-09-28T01:03:14.284Z,94965.06
2022-09-28T01:05:41.424Z,94960.34
2022-09-28T01:08:10.110Z,94953.69
2022-09-28T01:10:37.075Z,94956.22
2022-09-28T01:13:04.057Z,94950.69
2022-09-28T01:15:36.236Z,94933.69
2022-09-28T01:18:21.095Z,94937.28
2022-09-28T01:20:56.061Z,94935.47
2022-09-28T01:23:56.864Z,94932.56
2022-09-28T01:26:55.142Z,94921.41
2022-09-28T01:29:46.431Z,94922.53
2022-09-28T01:32:29.519Z,94922.44
2022-09-28T01:35:26.634Z,94907.41
2022-09-28T01:38:02.501Z,94908.06
2022-09-28T01:40:31.748Z,94902.78
2022-09-28T01:43:06.156Z,94892.66
2022-09-28T01:46:02.790Z,94899.00
2022-09-28T01:48:46.501Z,94892.88
2022-09-28T01:51:24.036Z,94894.13
2022-09-28T01:53:57.720Z,94874.31
2022-09-28T01:56:58.296Z,94873.44
2022-09-28T01:59:34.116Z,94863.09
2022-09-28T02:02:14.909Z,94864.00
2022-09-28T02:04:55.643Z,94854.16
2022-09-28T02:07:37.820Z,94846.19
2022-09-28T02:10:13.216Z,94848.59
2022-09-28T02:13:01.449Z,94834.72
2022-09-28T02:15:52.044Z,94829.47
2022-09-28T02:18:18.877Z,94818.84
2022-09-28T02:20:55.959Z,94804.72
2022-09-28T02:23:26.787Z,94806.81
2022-09-28T02:26:01.839Z,94804.72
2022-09-28T02:28:28.650Z,94804.72
2022-09-28T02:30:55.544Z,94803.63
2022-09-28T02:33:24.271Z,94807.22
2022-09-28T02:35:51.253Z,94799.78
2022-09-28T02:38:18.044Z,94799.63
2022-09-28T02:41:00.660Z,94792.13
2022-09-28T02:43:54.899Z,94783.88
2022-09-28T02:46:47.846Z,94783.75
2022-09-28T02:49:45.364Z,94779.72
2022-09-28T02:52:12.313Z,94776.34
2022-09-28T02:55:40.257Z,94767.25
2022-09-28T02:58:47.897Z,94768.66
2022-09-28T03:01:39.362Z,94771.22
2022-09-28T03:04:11.426Z,94762.59
2022-09-28T03:07:06.132Z,94753.72
2022-09-28T03:09:54.029Z,94749.28
2022-09-28T03:12:23.521Z,94747.13
2022-09-28T03:15:07.701Z,94741.06
2022-09-28T03:17:34.490Z,94741.97
2022-09-28T03:20:02.342Z,94739.03
2022-09-28T03:22:29.218Z,94722.66
2022-09-28T03:24:56.078Z,94725.50
2022-09-28T03:27:22.922Z,94726.91
2022-09-28T03:29:49.920Z,94727.84
2022-09-28T03:32:16.708Z,94729.44
2022-09-28T03:34:43.484Z,94729.44
2022-09-28T03:37:10.280Z,94721.00
2022-09-28T03:39:37.101Z,94719.88
2022-09-28T03:42:04.013Z,94713.50
2022-09-28T03:44:30.798Z,94716.81
2022-09-28T03:46:57.593Z,94706.25
2022-09-28T03:49:24.459Z,94698.81
2022-09-28T03:51:51.244Z,94700.50
2022-09-28T03:54:18.285Z,94691.66
2022-09-28T03:56:45.086Z,94684.22
2022-09-28T03:59:12.000Z,94682.72
2022-09-28T04:01:38.922Z,94690.69
2022-09-28T04:04:05.815Z,94686.91
2022-09-28T04:06:32.624Z,94686.78
2022-09-28T04:08:59.517Z,94682.19
2022-09-28T04:11:26.493Z,94680.16
2022-09-28T04:13:53.302Z,94670.38
2022-09-28T04:16:20.145Z,94684.97
2022-09-28T04:18:48.276Z,94674.78
2022-09-28T04:21:19.595Z,94670.56
2022-09-28T04:23:47.489Z,94671.44
2022-09-28T04:26:26.448Z,94664.00
2022-09-28T04:29:12.029Z,94654.47
2022-09-28T04:31:42.298Z,94659.84
2022-09-28T04:34:09.618Z,94658.16
2022-09-28T04:36:37.090Z,94660.22
2022-09-28T04:39:04.067Z,94660.53
2022-09-28T04:41:31.088Z,94650.94
2022-09-28T04:43:57.862Z,94648.75
2022-09-28T04:46:24.665Z,94647.31
2022-09-28T04:48:51.477Z,94651.31
2022-09-28T04:51:18.281Z,94652.25
2022-09-28T04:53:45.171Z,94652.09
2022-09-28T04:56:14.706Z,94654.56
2022-09-28T04:58:42.561Z,94652.75
2022-09-28T05:01:16.024Z,94646.59
2022-09-28T05:03:43.920Z,94653.38
2022-09-28T05:06:15.161Z,94652.78
2022-09-28T05:08:42.926Z,94648.19
2022-09-28T05:11:12.367Z,94649.78
2022-09-28T05:13:45.340Z,94652.50
2022-09-28T05:16:15.679Z,94649.69
2022-09-28T05:18:42.938Z,94654.31
2022-09-28T05:21:14.944Z,94644.91
2022-09-28T05:23:46.628Z,94640.28
2022-09-28T05:26:14.181Z,94650.97
2022-09-28T05:28:41.010Z,94646.47
2022-09-28T05:31:08.064Z,94647.47
2022-09-28T05:33:35.066Z,94634.78
2022-09-28T05:36:02.248Z,94641.47
2022-09-28T05:38:30.356Z,94633.53
2022-09-28T05:40:57.636Z,94628.88
2022-09-28T05:43:24.845Z,94620.78
2022-09-28T05:45:55.314Z,94623.78
2022-09-28T05:48:23.080Z,94607.22
2022-09-28T05:50:53.246Z,94596.50
2022-09-28T05:53:20.129Z,94598.22
2022-09-28T05:55:47.019Z,94592.84
2022-09-28T05:58:16.950Z,94592.09
2022-09-28T06:00:43.889Z,94592.16
2022-09-28T06:03:14.069Z,94585.31
2022-09-28T06:05:41.593Z,94594.38
2022-09-28T06:08:10.608Z,94591.44
2022-09-28T06:10:38.261Z,94587.31
2022-09-28T06:13:06.436Z,94599.63
2022-09-28T06:15:35.058Z,94606.25
2022-09-28T06:18:06.798Z,94606.41
2022-09-28T06:20:38.591Z,94605.38
2022-09-28T06:23:05.358Z,94604.38
2022-09-28T06:25:32.409Z,94613.38
2022-09-28T06:28:11.802Z,94616.22
2022-09-28T06:30:40.205Z,94615.50
2022-09-28T06:33:11.085Z,94610.50
2022-09-28T06:35:38.044Z,94610.69
2022-09-28T06:38:04.881Z,94608.94
2022-09-28T06:40:33.332Z,94599.00
2022-09-28T06:43:11.225Z,94597.25
2022-09-28T06:45:38.787Z,94605.88
2022-09-28T06:48:06.007Z,94612.78
2022-09-28T06:50:39.520Z,94599.38
2022-09-28T06:53:09.448Z,94595.22
2022-09-28T06:55:39.890Z,94586.63
2022-09-28T06:58:11.208Z,94604.03
2022-09-28T07:00:39.761Z,94596.19
2022-09-28T07:03:12.213Z,94603.03
2022-09-28T07:05:44.133Z,94611.59
2022-09-28T07:08:11.504Z,94610.59
2022-09-28T07:10:46.763Z,94612.38
2022-09-28T07:13:41.361Z,94617.66
2022-09-28T07:16:02.834Z,94610.31
2022-09-28T07:18:29.975Z,94617.44
2022-09-28T07:20:57.394Z,94622.84
2022-09-28T07:23:27.433Z,94635.66
2022-09-28T07:25:54.586Z,94618.69
2022-09-28T07:28:22.290Z,94629.00
2022-09-28T07:30:49.210Z,94639.41
2022-09-28T07:33:17.531Z,94636.91
2022-09-28T07:35:55.385Z,94638.91
2022-09-28T07:38:22.644Z,94632.16
2022-09-28T07:41:07.782Z,94637.50
2022-09-28T07:43:35.274Z,94639.16
2022-09-28T07:46:02.142Z,94635.75
2022-09-28T07:48:36.673Z,94633.84
2022-09-28T07:51:04.105Z,94644.97
2022-09-28T07:53:31.500Z,94643.56
2022-09-28T07:56:06.984Z,94645.44
2022-09-28T07:58:38.976Z,94638.56
2022-09-28T08:01:11.777Z,94638.06
2022-09-28T08:03:39.346Z,94649.69
2022-09-28T08:06:09.730Z,94653.53
2022-09-28T08:08:36.996Z,94641.81
2022-09-28T08:11:06.524Z,94644.56
2022-09-28T08:13:33.318Z,94652.47
2022-09-28T08:16:04.426Z,94649.38
2022-09-28T08:18:31.794Z,94651.44
2022-09-28T08:21:16.959Z,94656.53
2022-09-28T08:23:43.772Z,94660.09
2022-09-28T08:26:15.182Z,94665.72
2022-09-28T08:28:44.883Z,94670.94
2022-09-28T08:31:11.772Z,94679.84
2022-09-28T08:33:38.569Z,94668.28
2022-09-28T08:36:06.099Z,94675.59
2022-09-28T08:38:33.355Z,94679.25
2022-09-28T08:41:21.541Z,94671.97
2022-09-28T08:44:12.388Z,94686.81
2022-09-28T08:46:47.790Z,94685.22
2022-09-28T08:49:36.341Z,94690.56
2022-09-28T08:52:14.275Z,94700.91
2022-09-28T08:54:54.552Z,94705.63
2022-09-28T08:57:34.128Z,94711.16
2022-09-28T09:00:09.618Z,94743.00
2022-09-28T09:02:39.794Z,94754.34
2022-09-28T09:05:14.644Z,94747.22
2022-09-28T09:08:05.341Z,94768.69
2022-09-28T09:10:53.244Z,94767.81
2022-09-28T09:13:51.071Z,94775.66
2022-09-28T09:16:32.553Z,94776.06
2022-09-28T09:19:53.445Z,94785.06
2022-09-28T09:22:56.481Z,94784.41
2022-09-28T09:25:40.981Z,94776.41
2022-09-28T09:28:26.469Z,94768.59
2022-09-28T09:31:12.070Z,94758.84
2022-09-28T09:33:44.629Z,94767.59
2022-09-28T09:36:34.567Z,94757.16
2022-09-28T09:39:28.593Z,94746.28
2022-09-28T09:42:37.220Z,94743.66
2022-09-28T09:45:28.639Z,94747.88
2022-09-28T09:48:29.815Z,94759.13
2022-09-28T09:51:06.504Z,94769.84
2022-09-28T09:53:45.818Z,94759.44
2022-09-28T09:56:37.193Z,94762.72
2022-09-28T09:59:13.104Z,94760.88
2022-09-28T10:01:41.467Z,94772.38
2022-09-28T10:04:35.257Z,94775.06
2022-09-28T10:07:06.138Z,94781.16
2022-09-28T10:09:45.894Z,94776.94
2022-09-28T10:12:19.876Z,94776.38
2022-09-28T10:14:46.736Z,94786.66
2022-09-28T10:17:18.165Z,94786.94
2022-09-28T10:19:45.221Z,94787.50
2022-09-28T10:22:18.081Z,94792.13
2022-09-28T10:24:50.001Z,94794.66
2022-09-28T10:27:31.483Z,94795.84
2022-09-28T10:30:13.638Z,94794.31
2022-09-28T10:32:46.576Z,94789.00
2022-09-28T10:35:19.304Z,94790.88
2022-09-28T10:38:19.085Z,94795.84
2022-09-28T10:40:54.194Z,94793.81
2022-09-28T10:43:38.501Z,94801.47
2022-09-28T10:46:21.704Z,94807.06
2022-09-28T10:49:15.738Z,94820.97
2022-09-28T10:51:57.357Z,94810.91
2022-09-28T10:54:30.156Z,94810.41
2022-09-28T10:56:58.964Z,94815.19
2022-09-28T10:59:28.662Z,94818.09
2022-09-28T11:02:15.198Z,94798.25
2022-09-28T11:04:50.834Z,94820.97
2022-09-28T11:07:26.081Z,94817.28
2022-09-28T11:09:54.807Z,94819.91
2022-09-28T11:12:26.287Z,94815.72
2022-09-28T11:15:07.798Z,94823.00
2022-09-28T11:17:43.717Z,94818.56
2022-09-28T11:20:27.789Z,94825.44
2022-09-28T11:23:15.620Z,94825.19
2022-09-28T11:25:42.793Z,94818.91
2022-09-28T11:28:29.568Z,94828.09
2022-09-28T11:30:56.595Z,94828.91
2022-09-28T11:33:37.191Z,94834.69
2022-09-28T11:36:18.432Z,94841.03
2022-09-28T11:39:12.020Z,94837.34
2022-09-28T11:41:50.835Z,94846.53
2022-09-28T11:44:48.249Z,94845.78
2022-09-28T11:47:23.546Z,94829.22
2022-09-28T11:50:06.436Z,94832.09
2022-09-28T11:52:52.265Z,94823.00
2022-09-28T11:55:22.037Z,94828.84
2022-09-28T11:58:35.484Z,94837.28
2022-09-28T12:01:31.300Z,94839.50
2022-09-28T12:04:09.806Z,94853.88
2022-09-28T12:06:50.171Z,94854.75
2022-09-28T12:09:32.721Z,94848.97
2022-09-28T12:12:10.333Z,94854.81
2022-09-28T12:14:40.321Z,94849.81
2022-09-28T12:17:22.458Z,94845.28
2022-09-28T12:19:59.778Z,94850.31
2022-09-28T12:22:42.913Z,94848.16
2022-09-28T12:25:23.006Z,94853.13
2022-09-28T12:27:56.974Z,94856.41
2022-09-28T12:30:25.691Z,94850.16
2022-09-28T12:33:12.271Z,94854.38
2022-09-28T12:36:00.438Z,94868.63
2022-09-28T12:39:35.807Z,94855.13
2022-09-28T12:42:47.658Z,94852.25
2022-09-28T12:46:12.349Z,94844.06
2022-09-28T12:49:40.965Z,94850.13
2022-09-28T12:52:03.182Z,94861.28
2022-09-28T12:54:53.203Z,94862.34
2022-09-28T12:57:48.839Z,94855.44
2022-09-28T13:00:23.402Z,94858.09
2022-09-28T13:03:08.255Z,94854.41
2022-09-28T13:06:14.974Z,94858.63
2022-09-28T13:09:07.690Z,94868.16
2022-09-28T13:11:45.752Z,94855.84
2022-09-28T13:14:18.320Z,94860.41
2022-09-28T13:17:25.671Z,94866.28
2022-09-28T13:19:59.675Z,94867.66
2022-09-28T13:22:56.715Z,94873.25
2022-09-28T13:25:28.197Z,94870.13
2022-09-28T13:28:04.175Z,94867.75
2022-09-28T13:30:35.440Z,94859.81
2022-09-28T13:33:05.708Z,94860.03
2022-09-28T13:35:33.412Z,94857.06
2022-09-28T13:38:18.479Z,94847.34
2022-09-28T13:41:03.934Z,94847.84
2022-09-28T13:43:54.406Z,94855.34
2022-09-28T13:46:55.254Z,94854.06
2022-09-28T13:49:47.791Z,94854.84
2022-09-28T13:52:48.141Z,94843.72
2022-09-28T13:55:37.131Z,94852.56
2022-09-28T13:58:20.520Z,94855.78
2022-09-28T14:01:04.245Z,94846.00
2022-09-28T14:04:21.884Z,94852.72
2022-09-28T14:07:16.669Z,94860.44
2022-09-28T14:09:47.818Z,94857.25
2022-09-28T14:12:37.609Z,94855.63
2022-09-28T14:15:30.078Z,94864.66
2022-09-28T14:18:29.435Z,94872.59
2022-09-28T14:21:18.915Z,94863.38
2022-09-28T14:24:40.443Z,94860.88
2022-09-28T14:27:32.427Z,94853.19
2022-09-28T14:30:10.957Z,94854.63
2022-09-28T14:32:58.604Z,94842.78
2022-09-28T14:35:34.229Z,94842.81
2022-09-28T14:38:30.333Z,94846.69
2022-09-28T14:41:09.758Z,94849.25
2022-09-28T14:43:45.610Z,94851.28
2022-09-28T14:46:14.387Z,94857.50
2022-09-28T14:49:03.819Z,94856.72
2022-09-28T14:51:30.554Z,94858.66
2022-09-28T14:54:10.465Z,94849.94
2022-09-28T14:56:52.490Z,94854.69
2022-09-28T14:59:24.959Z,94852.91
2022-09-28T15:02:02.841Z,94864.47
2022-09-28T15:04:30.985Z,94867.03
2022-09-28T15:06:58.077Z,94854.94
2022-09-28T15:09:39.050Z,94864.28
2022-09-28T15:12:10.309Z,94861.34
2022-09-28T15:14:48.045Z,94860.19
2022-09-28T15:17:22.716Z,94857.47
2022-09-28T15:20:02.611Z,94862.38
2022-09-28T15:22:30.235Z,94853.56
2022-09-28T15:25:04.755Z,94853.75
2022-09-28T15:27:38.191Z,94854.72
2022-09-28T15:30:36.506Z,94853.38
2022-09-28T15:33:23.380Z,94857.47
2022-09-28T15:36:01.414Z,94868.03
2022-09-28T15:38:28.823Z,94872.72
2022-09-28T15:40:56.068Z,94863.38
2022-09-28T15:43:34.738Z,94874.56
2022-09-28T15:46:13.430Z,94880.75
2022-09-28T15:48:57.284Z,94885.53
2022-09-28T15:51:25.338Z,94880.88
2022-09-28T15:54:12.424Z,94888.25
2022-09-28T15:56:59.534Z,94891.03
2022-09-28T15:59:32.174Z,94896.59
2022-09-28T16:02:13.082Z,94904.28
2022-09-28T16:04:48.059Z,94904.50
2022-09-28T16:07:51.553Z,94904.59
2022-09-28T16:10:30.829Z,94909.06
2022-09-28T16:13:17.774Z,94914.47
2022-09-28T16:15:44.834Z,94916.41
2022-09-28T16:18:23.559Z,94914.47
2022-09-28T16:20:53.756Z,94912.25
2022-09-28T16:23:27.765Z,94904.56
2022-09-28T16:25:55.889Z,94914.47
2022-09-28T16:28:37.388Z,94917.50
2022-09-28T16:31:29.750Z,94922.94
2022-09-28T16:34:01.209Z,94919.34
2022-09-28T16:36:39.844Z,94917.16
2022-09-28T16:39:06.705Z,94914.75
2022-09-28T16:41:33.506Z,94912.34
2022-09-28T16:44:02.688Z,94904.84
2022-09-28T16:46:37.202Z,94906.03
2022-09-28T16:49:06.661Z,94902.66
2022-09-28T16:51:33.997Z,94900.84
2022-09-28T16:54:37.194Z,94891.88
2022-09-28T16:57:07.460Z,94890.66
2022-09-28T16:59:38.270Z,94889.81
2022-09-28T17:02:45.134Z,94897.03
2022-09-28T17:05:07.891Z,94900.22
2022-09-28T17:07:34.950Z,94905.03
2022-09-28T17:10:01.839Z,94915.38
2022-09-28T17:12:28.901Z,94919.16
2022-09-28T17:14:55.744Z,94919.06
2022-09-28T17:17:22.677Z,94922.75
2022-09-28T17:19:49.453Z,94925.81
2022-09-28T17:22:16.735Z,94920.19
2022-09-28T17:24:45.513Z,94917.41
2022-09-28T17:27:18.678Z,94914.91
2022-09-28T17:29:45.594Z,94929.69
2022-09-28T17:32:18.747Z,94926.56
2022-09-28T17:34:55.873Z,94920.75
2022-09-28T17:37:28.474Z,94921.66
2022-09-28T17:39:55.263Z,94925.63
2022-09-28T17:42:22.047Z,94921.75
2022-09-28T17:44:48.860Z,94920.72
2022-09-28T17:47:15.692Z,94924.94
2022-09-28T17:49:45.837Z,94922.69
2022-09-28T17:52:13.107Z,94926.19
2022-09-28T17:54:39.869Z,94924.69
2022-09-28T17:57:06.637Z,94929.16
2022-09-28T17:59:33.398Z,94924.06
2022-09-28T18:02:02.303Z,94926.16
2022-09-28T18:04:50.895Z,94932.19
2022-09-28T18:07:17.177Z,94936.28
2022-09-28T18:09:43.945Z,94942.56
2022-09-28T18:12:10.728Z,94938.56
2022-09-28T18:14:39.792Z,94941.44
2022-09-28T18:17:06.560Z,94945.09
2022-09-28T18:19:33.351Z,94943.03
2022-09-28T18:22:01.292Z,94947.09
2022-09-28T18:24:28.226Z,94940.28
2022-09-28T18:26:55.052Z,94959.75
2022-09-28T18:29:21.824Z,94956.44
2022-09-28T18:31:48.811Z,94953.00
2022-09-28T18:34:15.645Z,94956.09
2022-09-28T18:36:42.545Z,94966.16
2022-09-28T18:39:09.363Z,94972.75
2022-09-28T18:41:36.376Z,94978.66
2022-09-28T18:44:03.391Z,94978.88
2022-09-28T18:46:36.378Z,94980.28
2022-09-28T18:49:04.535Z,94990.34
2022-09-28T18:51:31.650Z,94984.06
2022-09-28T18:53:58.478Z,94982.75
2022-09-28T18:56:25.705Z,94992.13
2022-09-28T18:58:52.724Z,94980.78
2022-09-28T19:01:36.549Z,94986.69
2022-09-28T19:04:06.854Z,94991.94
2022-09-28T19:06:38.596Z,94996.06
2022-09-28T19:09:05.505Z,95007.72
2022-09-28T19:11:32.433Z,95022.59
2022-09-28T19:13:59.217Z,95015.72
2022-09-28T19:16:29.124Z,95014.03
2022-09-28T19:18:58.410Z,95015.34
2022-09-28T19:21:25.482Z,95017.19
2022-09-28T19:23:54.988Z,95014.75
2022-09-28T19:26:27.657Z,95013.28
2022-09-28T19:28:57.031Z,95023.78
2022-09-28T19:31:24.542Z,95023.88
2022-09-28T19:33:51.532Z,95028.44
2022-09-28T19:36:23.597Z,95028.31
2022-09-28T19:38:52.735Z,95033.00
2022-09-28T19:41:44.714Z,95038.16
2022-09-28T19:44:19.271Z,95035.31
2022-09-28T19:46:46.875Z,95032.72
2022-09-28T19:49:19.830Z,95035.78
2022-09-28T19:52:08.515Z,95044.34
2022-09-28T19:54:37.878Z,95052.81
2022-09-28T19:57:07.952Z,95053.63
2022-09-28T19:59:37.007Z,95052.22
2022-09-28T20:02:07.604Z,95054.59
2022-09-28T20:04:34.997Z,95060.53
2022-09-28T20:07:03.826Z,95059.22
2022-09-28T20:09:32.513Z,95062.84
2022-09-28T20:11:59.615Z,95058.19
2022-09-28T20:14:32.052Z,95072.47
2022-09-28T20:17:01.210Z,95072.28
2022-09-28T20:19:28.066Z,95077.41
2022-09-28T20:21:59.399Z,95069.56
2022-09-28T20:24:26.298Z,95070.63
2022-09-28T20:26:53.103Z,95078.72
2022-09-28T20:29:20.087Z,95074.03
2022-09-28T20:31:47.096Z,95079.19
2022-09-28T20:34:13.997Z,95079.75
2022-09-28T20:36:43.524Z,95072.22
2022-09-28T20:39:10.709Z,95087.19
2022-09-28T20:41:37.564Z,95081.69
2022-09-28T20:44:06.472Z,95078.97
2022-09-28T20:46:35.701Z,95085.34
2022-09-28T20:49:03.656Z,95086.84
2022-09-28T20:51:31.084Z,95088.56
2022-09-28T20:54:00.685Z,95088.34
2022-09-28T20:56:31.537Z,95089.38
2022-09-28T20:58:58.326Z,95087.97
2022-09-28T21:01:27.777Z,95086.19
2022-09-28T21:03:57.871Z,95100.81
2022-09-28T21:06:28.281Z,95100.69
2022-09-28T21:08:55.151Z,95099.56
2022-09-28T21:11:25.363Z,95102.84
2022-09-28T21:13:54.840Z,95100.22
2022-09-28T21:16:21.826Z,95097.94
2022-09-28T21:18:48.880Z,95096.53
2022-09-28T21:21:18.812Z,95105.50
2022-09-28T21:23:46.013Z,95094.97
2022-09-28T21:26:25.038Z,95097.81
2022-09-28T21:28:56.263Z,95106.84
2022-09-28T21:31:28.895Z,95102.28
2022-09-28T21:33:57.411Z,95097.59
2022-09-28T21:36:25.239Z,95108.13
2022-09-28T21:38:53.405Z,95095.66
2022-09-28T21:41:20.196Z,95101.41
2022-09-28T21:43:46.960Z,95100.72
2022-09-28T21:46:13.821Z,95110.31
2022-09-28T21:48:41.214Z,95105.50
2022-09-28T21:51:11.088Z,95107.81
2022-09-28T21:53:38.442Z,95104.59
2022-09-28T21:56:09.605Z,95096.81
2022-09-28T21:58:37.047Z,95096.13
2022-09-28T22:01:21.417Z,95091.88
2022-09-28T22:03:54.249Z,95103.69
2022-09-28T22:06:24.701Z,95098.75
2022-09-28T22:08:51.623Z,95105.50
2022-09-28T22:11:22.361Z,95102.63
2022-09-28T22:13:55.125Z,95098.63
2022-09-28T22:16:25.393Z,95100.25
2022-09-28T22:18:52.629Z,95100.56
2022-09-28T22:21:32.779Z,95106.19
2022-09-28T22:24:02.214Z,95102.53
2022-09-28T22:26:31.698Z,95097.84
2022-09-28T22:29:09.681Z,95101.63
2022-09-28T22:31:39.787Z,95106.63
2022-09-28T22:34:08.354Z,95109.03
2022-09-28T22:36:35.381Z,95111.09
2022-09-28T22:39:02.416Z,95111.34
2022-09-28T22:41:29.892Z,95115.31
2022-09-28T22:43:56.770Z,95114.50
2022-09-28T22:46:28.981Z,95110.97
2022-09-28T22:48:58.258Z,95111.88
2022-09-28T22:51:28.037Z,95115.53
2022-09-28T22:53:56.408Z,95123.53
2022-09-28T22:56:23.503Z,95117.72
2022-09-28T22:58:50.415Z,95119.56
2022-09-28T23:01:26.320Z,95116.94
2022-09-28T23:03:54.776Z,95118.06
2022-09-28T23:06:25.886Z,95112.47
2022-09-28T23:08:53.299Z,95112.38
2022-09-28T23:11:20.868Z,95108.94
2022-09-28T23:13:52.342Z,95108.47
2022-09-28T23:16:19.951Z,95118.53
2022-09-28T23:18:46.854Z,95118.53
2022-09-28T23:21:17.554Z,95107.66
2022-09-28T23:23:46.169Z,95115.31
2022-09-28T23:26:22.910Z,95116.94
2022-09-28T23:28:49.701Z,95115.31
2022-09-28T23:31:24.131Z,95115.22
2022-09-28T23:33:51.473Z,95114.63
2022-09-28T23:36:18.845Z,95116.56
2022-09-28T23:38:45.838Z,95115.75
2022-09-28T23:41:12.651Z,95105.72
2022-09-28T23:43:39.476Z,95103.88
2022-09-28T23:46:07.182Z,95106.75
2022-09-28T23:48:34.288Z,95101.59
2022-09-28T23:51:01.673Z,95089.47
2022-09-28T23:53:29.011Z,95092.81
2022-09-28T23:55:55.854Z,95093.72
2022-09-28T23:58:22.733Z,95099.06
